sensor_id;sensor_type;location;lat;lon;timestamp;temperature;humidity
5200;DHT22;2619;47.868;11.892;2023-07-31T00:01:59;15.70;99.90
5200;DHT22;2619;47.868;11.892;2023-07-31T00:04:25;15.70;99.90
5200;DHT22;2619;47.868;11.892;2023-07-31T00:06:51;15.70;99.90
5200;DHT22;2619;47.868;11.892;2023-07-31T00:09:16;15.60;99.90
5200;DHT22;2619;47.868;11.892;2023-07-31T00:11:42;15.50;99.90
5200;DHT22;2619;47.868;11.892;2023-07-31T00:14:07;15.40;99.90
5200;DHT22;2619;47.868;11.892;2023-07-31T00:16:33;15.40;99.90
5200;DHT22;2619;47.868;11.892;2023-07-31T00:18:58;15.30;99.90
5200;DHT22;2619;47.868;11.892;2023-07-31T00:21:24;15.30;99.90
5200;DHT22;2619;47.868;11.892;2023-07-31T00:23:49;15.20;99.90
5200;DHT22;2619;47.868;11.892;2023-07-31T00:26:15;15.20;99.90
5200;DHT22;2619;47.868;11.892;2023-07-31T00:28:41;15.20;99.90
5200;DHT22;2619;47.868;11.892;2023-07-31T00:31:07;15.20;99.90
5200;DHT22;2619;47.868;11.892;2023-07-31T00:33:35;15.20;99.90
5200;DHT22;2619;47.868;11.892;2023-07-31T00:36:00;15.10;99.90
5200;DHT22;2619;47.868;11.892;2023-07-31T00:38:26;15.00;99.90
5200;DHT22;2619;47.868;11.892;2023-07-31T00:40:52;14.90;99.90
5200;DHT22;2619;47.868;11.892;2023-07-31T00:43:17;14.80;99.90
5200;DHT22;2619;47.868;11.892;2023-07-31T00:45:43;14.70;99.90
5200;DHT22;2619;47.868;11.892;2023-07-31T00:48:08;14.60;99.90
5200;DHT22;2619;47.868;11.892;2023-07-31T00:50:35;14.50;99.90
5200;DHT22;2619;47.868;11.892;2023-07-31T00:53:01;14.40;99.90
5200;DHT22;2619;47.868;11.892;2023-07-31T00:55:27;14.40;99.90
5200;DHT22;2619;47.868;11.892;2023-07-31T00:57:53;14.30;99.90
5200;DHT22;2619;47.868;11.892;2023-07-31T01:00:21;14.20;99.90
5200;DHT22;2619;47.868;11.892;2023-07-31T01:02:47;14.10;99.90
5200;DHT22;2619;47.868;11.892;2023-07-31T01:05:13;14.00;99.90
5200;DHT22;2619;47.868;11.892;2023-07-31T01:07:56;13.80;99.90
5200;DHT22;2619;47.868;11.892;2023-07-31T01:10:27;13.80;99.90
5200;DHT22;2619;47.868;11.892;2023-07-31T01:12:56;13.70;99.90
5200;DHT22;2619;47.868;11.892;2023-07-31T01:15:23;13.70;99.90
5200;DHT22;2619;47.868;11.892;2023-07-31T01:17:49;13.60;99.90
5200;DHT22;2619;47.868;11.892;2023-07-31T01:20:22;13.60;99.90
5200;DHT22;2619;47.868;11.892;2023-07-31T01:22:58;13.60;99.90
5200;DHT22;2619;47.868;11.892;2023-07-31T01:28:02;13.40;99.90
5200;DHT22;2619;47.868;11.892;2023-07-31T01:30:34;13.30;99.90
5200;DHT22;2619;47.868;11.892;2023-07-31T01:33:03;13.30;99.90
5200;DHT22;2619;47.868;11.892;2023-07-31T01:35:34;13.30;99.90
5200;DHT22;2619;47.868;11.892;2023-07-31T01:38:00;13.20;99.90
5200;DHT22;2619;47.868;11.892;2023-07-31T01:40:25;13.20;99.90
5200;DHT22;2619;47.868;11.892;2023-07-31T01:42:51;13.20;99.90
5200;DHT22;2619;47.868;11.892;2023-07-31T01:45:16;13.20;99.90
5200;DHT22;2619;47.868;11.892;2023-07-31T01:47:42;13.10;99.90
5200;DHT22;2619;47.868;11.892;2023-07-31T01:50:08;13.10;99.90
5200;DHT22;2619;47.868;11.892;2023-07-31T01:52:34;13.20;99.90
5200;DHT22;2619;47.868;11.892;2023-07-31T01:54:59;13.30;99.90
5200;DHT22;2619;47.868;11.892;2023-07-31T01:57:25;13.30;99.90
5200;DHT22;2619;47.868;11.892;2023-07-31T01:59:50;13.40;99.90
5200;DHT22;2619;47.868;11.892;2023-07-31T02:02:18;13.50;99.90
5200;DHT22;2619;47.868;11.892;2023-07-31T02:04:44;13.50;99.90
5200;DHT22;2619;47.868;11.892;2023-07-31T02:07:10;13.60;99.90
5200;DHT22;2619;47.868;11.892;2023-07-31T02:09:35;13.70;99.90
5200;DHT22;2619;47.868;11.892;2023-07-31T02:12:01;13.80;99.90
5200;DHT22;2619;47.868;11.892;2023-07-31T02:14:26;13.80;99.90
5200;DHT22;2619;47.868;11.892;2023-07-31T02:16:52;13.90;99.90
5200;DHT22;2619;47.868;11.892;2023-07-31T02:19:17;14.00;99.90
5200;DHT22;2619;47.868;11.892;2023-07-31T02:21:43;14.10;99.90
5200;DHT22;2619;47.868;11.892;2023-07-31T02:24:08;14.20;99.90
5200;DHT22;2619;47.868;11.892;2023-07-31T02:26:34;14.20;99.90
5200;DHT22;2619;47.868;11.892;2023-07-31T02:28:59;14.30;99.90
5200;DHT22;2619;47.868;11.892;2023-07-31T02:31:25;14.40;99.90
5200;DHT22;2619;47.868;11.892;2023-07-31T02:33:51;14.50;99.90
5200;DHT22;2619;47.868;11.892;2023-07-31T02:36:16;14.50;99.90
5200;DHT22;2619;47.868;11.892;2023-07-31T02:38:42;14.60;99.90
5200;DHT22;2619;47.868;11.892;2023-07-31T02:41:07;14.60;99.90
5200;DHT22;2619;47.868;11.892;2023-07-31T02:43:33;14.60;99.90
5200;DHT22;2619;47.868;11.892;2023-07-31T02:45:59;14.60;99.90
5200;DHT22;2619;47.868;11.892;2023-07-31T02:48:25;14.70;99.90
5200;DHT22;2619;47.868;11.892;2023-07-31T02:50:50;14.70;99.90
5200;DHT22;2619;47.868;11.892;2023-07-31T02:53:16;14.80;99.90
5200;DHT22;2619;47.868;11.892;2023-07-31T02:55:41;14.80;99.90
5200;DHT22;2619;47.868;11.892;2023-07-31T02:58:07;14.80;99.90
5200;DHT22;2619;47.868;11.892;2023-07-31T03:00:33;14.70;99.90
5200;DHT22;2619;47.868;11.892;2023-07-31T03:02:58;14.70;99.90
5200;DHT22;2619;47.868;11.892;2023-07-31T03:05:24;14.70;99.90
5200;DHT22;2619;47.868;11.892;2023-07-31T03:07:49;14.80;99.90
5200;DHT22;2619;47.868;11.892;2023-07-31T03:10:15;14.80;99.90
5200;DHT22;2619;47.868;11.892;2023-07-31T03:12:40;14.90;99.90
5200;DHT22;2619;47.868;11.892;2023-07-31T03:15:07;14.80;99.90
5200;DHT22;2619;47.868;11.892;2023-07-31T03:17:32;14.70;99.90
5200;DHT22;2619;47.868;11.892;2023-07-31T03:19:58;14.60;99.90
5200;DHT22;2619;47.868;11.892;2023-07-31T03:22:23;14.60;99.90
5200;DHT22;2619;47.868;11.892;2023-07-31T03:24:49;14.60;99.90
5200;DHT22;2619;47.868;11.892;2023-07-31T03:27:15;14.70;99.90
5200;DHT22;2619;47.868;11.892;2023-07-31T03:29:40;14.80;99.90
5200;DHT22;2619;47.868;11.892;2023-07-31T03:32:06;14.80;99.90
5200;DHT22;2619;47.868;11.892;2023-07-31T03:34:32;14.80;99.90
5200;DHT22;2619;47.868;11.892;2023-07-31T03:36:58;14.90;99.90
5200;DHT22;2619;47.868;11.892;2023-07-31T03:39:23;14.90;99.90
5200;DHT22;2619;47.868;11.892;2023-07-31T03:41:49;14.90;99.90
5200;DHT22;2619;47.868;11.892;2023-07-31T03:44:14;14.90;99.90
5200;DHT22;2619;47.868;11.892;2023-07-31T03:46:40;14.90;99.90
5200;DHT22;2619;47.868;11.892;2023-07-31T03:49:05;14.90;99.90
5200;DHT22;2619;47.868;11.892;2023-07-31T03:51:31;14.90;99.90
5200;DHT22;2619;47.868;11.892;2023-07-31T03:53:56;14.90;99.90
5200;DHT22;2619;47.868;11.892;2023-07-31T03:56:22;14.90;99.90
5200;DHT22;2619;47.868;11.892;2023-07-31T03:58:48;14.90;99.90
5200;DHT22;2619;47.868;11.892;2023-07-31T04:01:13;14.90;99.90
5200;DHT22;2619;47.868;11.892;2023-07-31T04:03:39;14.90;99.90
5200;DHT22;2619;47.868;11.892;2023-07-31T04:06:04;14.90;99.90
5200;DHT22;2619;47.868;11.892;2023-07-31T04:08:32;14.90;99.90
5200;DHT22;2619;47.868;11.892;2023-07-31T04:10:57;15.00;99.90
5200;DHT22;2619;47.868;11.892;2023-07-31T04:13:23;15.00;99.90
5200;DHT22;2619;47.868;11.892;2023-07-31T04:15:49;15.10;99.90
5200;DHT22;2619;47.868;11.892;2023-07-31T04:18:19;15.20;99.90
5200;DHT22;2619;47.868;11.892;2023-07-31T04:20:45;15.20;99.90
5200;DHT22;2619;47.868;11.892;2023-07-31T04:23:11;15.20;99.90
5200;DHT22;2619;47.868;11.892;2023-07-31T04:25:37;15.30;99.90
5200;DHT22;2619;47.868;11.892;2023-07-31T04:28:02;15.30;99.90
5200;DHT22;2619;47.868;11.892;2023-07-31T04:30:28;15.20;99.90
5200;DHT22;2619;47.868;11.892;2023-07-31T04:32:53;15.20;99.90
5200;DHT22;2619;47.868;11.892;2023-07-31T04:35:19;15.20;99.90
5200;DHT22;2619;47.868;11.892;2023-07-31T04:37:44;15.20;99.90
5200;DHT22;2619;47.868;11.892;2023-07-31T04:40:14;15.30;99.90
5200;DHT22;2619;47.868;11.892;2023-07-31T04:42:39;15.50;99.90
5200;DHT22;2619;47.868;11.892;2023-07-31T04:45:05;15.60;99.90
5200;DHT22;2619;47.868;11.892;2023-07-31T04:47:31;15.60;99.90
5200;DHT22;2619;47.868;11.892;2023-07-31T04:49:57;15.60;99.90
5200;DHT22;2619;47.868;11.892;2023-07-31T04:52:22;15.70;99.90
5200;DHT22;2619;47.868;11.892;2023-07-31T04:54:48;15.80;99.90
5200;DHT22;2619;47.868;11.892;2023-07-31T04:57:14;15.70;99.90
5200;DHT22;2619;47.868;11.892;2023-07-31T04:59:40;15.70;99.90
5200;DHT22;2619;47.868;11.892;2023-07-31T05:02:08;15.70;99.90
5200;DHT22;2619;47.868;11.892;2023-07-31T05:04:33;15.60;99.90
5200;DHT22;2619;47.868;11.892;2023-07-31T05:06:59;15.60;99.90
5200;DHT22;2619;47.868;11.892;2023-07-31T05:09:25;15.60;99.90
5200;DHT22;2619;47.868;11.892;2023-07-31T05:11:50;15.70;99.90
5200;DHT22;2619;47.868;11.892;2023-07-31T05:14:16;15.70;99.90
5200;DHT22;2619;47.868;11.892;2023-07-31T05:16:41;15.70;99.90
5200;DHT22;2619;47.868;11.892;2023-07-31T05:19:07;15.80;99.90
5200;DHT22;2619;47.868;11.892;2023-07-31T05:21:32;15.90;99.90
5200;DHT22;2619;47.868;11.892;2023-07-31T05:23:58;15.90;99.90
5200;DHT22;2619;47.868;11.892;2023-07-31T05:26:24;16.30;99.90
5200;DHT22;2619;47.868;11.892;2023-07-31T05:28:49;16.60;99.90
5200;DHT22;2619;47.868;11.892;2023-07-31T05:31:15;17.00;99.90
5200;DHT22;2619;47.868;11.892;2023-07-31T05:33:40;17.70;99.90
5200;DHT22;2619;47.868;11.892;2023-07-31T05:36:06;18.50;99.90
5200;DHT22;2619;47.868;11.892;2023-07-31T05:38:31;19.30;99.90
5200;DHT22;2619;47.868;11.892;2023-07-31T05:40:57;19.90;99.90
5200;DHT22;2619;47.868;11.892;2023-07-31T05:43:23;20.40;99.90
5200;DHT22;2619;47.868;11.892;2023-07-31T05:45:48;20.90;99.90
5200;DHT22;2619;47.868;11.892;2023-07-31T05:48:14;21.30;99.90
5200;DHT22;2619;47.868;11.892;2023-07-31T05:50:39;21.90;99.90
5200;DHT22;2619;47.868;11.892;2023-07-31T05:53:06;22.20;99.90
5200;DHT22;2619;47.868;11.892;2023-07-31T05:55:33;22.20;99.90
5200;DHT22;2619;47.868;11.892;2023-07-31T05:57:58;22.10;99.90
5200;DHT22;2619;47.868;11.892;2023-07-31T06:00:24;22.10;99.90
5200;DHT22;2619;47.868;11.892;2023-07-31T06:02:50;22.30;99.90
5200;DHT22;2619;47.868;11.892;2023-07-31T06:05:15;22.30;99.90
5200;DHT22;2619;47.868;11.892;2023-07-31T06:07:41;22.30;99.90
5200;DHT22;2619;47.868;11.892;2023-07-31T06:10:07;22.50;99.90
5200;DHT22;2619;47.868;11.892;2023-07-31T06:12:34;22.60;99.90
5200;DHT22;2619;47.868;11.892;2023-07-31T06:14:59;22.50;99.90
5200;DHT22;2619;47.868;11.892;2023-07-31T06:17:25;22.50;99.90
5200;DHT22;2619;47.868;11.892;2023-07-31T06:19:51;22.40;99.90
5200;DHT22;2619;47.868;11.892;2023-07-31T06:22:17;22.50;99.90
5200;DHT22;2619;47.868;11.892;2023-07-31T06:24:43;22.60;99.90
5200;DHT22;2619;47.868;11.892;2023-07-31T06:27:09;22.80;99.90
5200;DHT22;2619;47.868;11.892;2023-07-31T06:29:34;22.90;99.90
5200;DHT22;2619;47.868;11.892;2023-07-31T06:32:00;23.10;99.90
5200;DHT22;2619;47.868;11.892;2023-07-31T06:34:26;23.10;99.90
5200;DHT22;2619;47.868;11.892;2023-07-31T06:36:51;23.10;99.90
5200;DHT22;2619;47.868;11.892;2023-07-31T06:39:17;23.20;99.90
5200;DHT22;2619;47.868;11.892;2023-07-31T06:41:43;23.10;99.90
5200;DHT22;2619;47.868;11.892;2023-07-31T06:44:09;23.20;99.90
5200;DHT22;2619;47.868;11.892;2023-07-31T06:46:35;23.30;99.90
5200;DHT22;2619;47.868;11.892;2023-07-31T06:49:00;23.20;99.90
5200;DHT22;2619;47.868;11.892;2023-07-31T06:51:26;23.10;99.90
5200;DHT22;2619;47.868;11.892;2023-07-31T06:53:51;23.10;99.90
5200;DHT22;2619;47.868;11.892;2023-07-31T06:56:17;22.90;99.90
5200;DHT22;2619;47.868;11.892;2023-07-31T06:58:43;22.90;99.90
5200;DHT22;2619;47.868;11.892;2023-07-31T07:01:08;23.00;99.90
5200;DHT22;2619;47.868;11.892;2023-07-31T07:03:34;23.30;99.90
5200;DHT22;2619;47.868;11.892;2023-07-31T07:06:00;23.30;99.90
5200;DHT22;2619;47.868;11.892;2023-07-31T07:08:26;22.80;99.90
5200;DHT22;2619;47.868;11.892;2023-07-31T07:10:51;22.70;99.90
5200;DHT22;2619;47.868;11.892;2023-07-31T07:13:17;22.50;99.90
5200;DHT22;2619;47.868;11.892;2023-07-31T07:15:47;22.50;99.90
5200;DHT22;2619;47.868;11.892;2023-07-31T07:18:13;22.60;99.90
5200;DHT22;2619;47.868;11.892;2023-07-31T07:20:39;22.80;99.90
5200;DHT22;2619;47.868;11.892;2023-07-31T07:23:05;22.90;99.90
5200;DHT22;2619;47.868;11.892;2023-07-31T07:25:31;23.10;99.90
5200;DHT22;2619;47.868;11.892;2023-07-31T07:27:56;23.40;99.90
5200;DHT22;2619;47.868;11.892;2023-07-31T07:30:22;23.20;99.90
5200;DHT22;2619;47.868;11.892;2023-07-31T07:32:49;23.30;99.90
5200;DHT22;2619;47.868;11.892;2023-07-31T07:35:15;23.40;99.90
5200;DHT22;2619;47.868;11.892;2023-07-31T07:37:40;23.40;99.90
5200;DHT22;2619;47.868;11.892;2023-07-31T07:40:06;23.20;99.90
5200;DHT22;2619;47.868;11.892;2023-07-31T07:42:32;23.10;99.90
5200;DHT22;2619;47.868;11.892;2023-07-31T07:44:58;23.20;99.90
5200;DHT22;2619;47.868;11.892;2023-07-31T07:47:23;23.50;99.90
5200;DHT22;2619;47.868;11.892;2023-07-31T07:49:49;23.80;99.90
5200;DHT22;2619;47.868;11.892;2023-07-31T07:52:14;24.00;99.90
5200;DHT22;2619;47.868;11.892;2023-07-31T07:54:40;24.40;99.90
5200;DHT22;2619;47.868;11.892;2023-07-31T07:57:05;25.00;99.90
5200;DHT22;2619;47.868;11.892;2023-07-31T07:59:31;25.30;99.90
5200;DHT22;2619;47.868;11.892;2023-07-31T08:01:57;25.60;99.90
5200;DHT22;2619;47.868;11.892;2023-07-31T08:04:23;25.60;99.90
5200;DHT22;2619;47.868;11.892;2023-07-31T08:06:48;25.40;99.90
5200;DHT22;2619;47.868;11.892;2023-07-31T08:09:14;25.00;99.90
5200;DHT22;2619;47.868;11.892;2023-07-31T08:11:39;24.80;99.90
5200;DHT22;2619;47.868;11.892;2023-07-31T08:14:05;24.80;99.90
5200;DHT22;2619;47.868;11.892;2023-07-31T08:16:30;24.90;99.90
5200;DHT22;2619;47.868;11.892;2023-07-31T08:18:56;24.80;99.90
5200;DHT22;2619;47.868;11.892;2023-07-31T08:21:22;24.80;99.90
5200;DHT22;2619;47.868;11.892;2023-07-31T08:23:48;25.10;99.90
5200;DHT22;2619;47.868;11.892;2023-07-31T08:26:18;25.10;99.90
5200;DHT22;2619;47.868;11.892;2023-07-31T08:28:44;25.00;99.90
5200;DHT22;2619;47.868;11.892;2023-07-31T08:31:09;24.80;99.90
5200;DHT22;2619;47.868;11.892;2023-07-31T08:33:36;24.60;99.90
5200;DHT22;2619;47.868;11.892;2023-07-31T08:36:02;24.60;99.90
5200;DHT22;2619;47.868;11.892;2023-07-31T08:38:27;24.50;99.90
5200;DHT22;2619;47.868;11.892;2023-07-31T08:40:56;24.40;99.90
5200;DHT22;2619;47.868;11.892;2023-07-31T08:43:24;24.20;99.90
5200;DHT22;2619;47.868;11.892;2023-07-31T08:45:50;24.10;99.90
5200;DHT22;2619;47.868;11.892;2023-07-31T08:48:17;24.40;99.90
5200;DHT22;2619;47.868;11.892;2023-07-31T08:50:43;24.80;99.90
5200;DHT22;2619;47.868;11.892;2023-07-31T08:53:09;25.10;99.90
5200;DHT22;2619;47.868;11.892;2023-07-31T08:55:36;25.30;99.90
5200;DHT22;2619;47.868;11.892;2023-07-31T08:58:04;25.50;99.90
5200;DHT22;2619;47.868;11.892;2023-07-31T09:00:32;25.90;99.90
5200;DHT22;2619;47.868;11.892;2023-07-31T09:03:03;26.00;99.90
5200;DHT22;2619;47.868;11.892;2023-07-31T09:05:31;26.00;99.90
5200;DHT22;2619;47.868;11.892;2023-07-31T09:07:58;25.80;99.90
5200;DHT22;2619;47.868;11.892;2023-07-31T09:10:24;25.80;99.90
5200;DHT22;2619;47.868;11.892;2023-07-31T09:12:51;25.70;99.90
5200;DHT22;2619;47.868;11.892;2023-07-31T09:15:17;25.30;99.90
5200;DHT22;2619;47.868;11.892;2023-07-31T09:17:43;25.20;99.90
5200;DHT22;2619;47.868;11.892;2023-07-31T09:20:16;25.30;99.90
5200;DHT22;2619;47.868;11.892;2023-07-31T09:22:43;25.00;99.90
5200;DHT22;2619;47.868;11.892;2023-07-31T09:25:22;25.10;99.90
5200;DHT22;2619;47.868;11.892;2023-07-31T09:28:07;25.00;99.90
5200;DHT22;2619;47.868;11.892;2023-07-31T09:30:51;25.00;99.90
5200;DHT22;2619;47.868;11.892;2023-07-31T09:33:17;24.80;99.90
5200;DHT22;2619;47.868;11.892;2023-07-31T09:35:49;24.80;99.90
5200;DHT22;2619;47.868;11.892;2023-07-31T09:38:15;25.00;99.90
5200;DHT22;2619;47.868;11.892;2023-07-31T09:40:44;25.20;99.90
5200;DHT22;2619;47.868;11.892;2023-07-31T09:43:31;25.50;99.90
5200;DHT22;2619;47.868;11.892;2023-07-31T09:45:57;25.20;99.90
5200;DHT22;2619;47.868;11.892;2023-07-31T09:48:23;25.10;99.90
5200;DHT22;2619;47.868;11.892;2023-07-31T09:50:51;25.30;99.90
5200;DHT22;2619;47.868;11.892;2023-07-31T09:53:17;25.50;99.90
5200;DHT22;2619;47.868;11.892;2023-07-31T09:55:43;25.70;99.90
5200;DHT22;2619;47.868;11.892;2023-07-31T09:58:10;25.90;99.90
5200;DHT22;2619;47.868;11.892;2023-07-31T10:00:37;25.60;99.90
5200;DHT22;2619;47.868;11.892;2023-07-31T10:03:07;25.60;99.90
5200;DHT22;2619;47.868;11.892;2023-07-31T10:05:34;25.50;99.90
5200;DHT22;2619;47.868;11.892;2023-07-31T10:08:01;25.30;99.90
5200;DHT22;2619;47.868;11.892;2023-07-31T10:10:27;25.30;99.90
5200;DHT22;2619;47.868;11.892;2023-07-31T10:12:54;25.40;99.90
5200;DHT22;2619;47.868;11.892;2023-07-31T10:15:21;25.50;99.90
5200;DHT22;2619;47.868;11.892;2023-07-31T10:17:48;25.40;99.90
5200;DHT22;2619;47.868;11.892;2023-07-31T10:20:15;25.40;99.90
5200;DHT22;2619;47.868;11.892;2023-07-31T10:22:44;25.50;99.90
5200;DHT22;2619;47.868;11.892;2023-07-31T10:25:13;25.80;99.90
5200;DHT22;2619;47.868;11.892;2023-07-31T10:27:39;25.90;99.90
5200;DHT22;2619;47.868;11.892;2023-07-31T10:30:10;26.20;99.50
5200;DHT22;2619;47.868;11.892;2023-07-31T10:32:38;26.00;99.60
5200;DHT22;2619;47.868;11.892;2023-07-31T10:35:07;25.80;99.90
5200;DHT22;2619;47.868;11.892;2023-07-31T10:37:38;25.80;99.90
5200;DHT22;2619;47.868;11.892;2023-07-31T10:40:19;25.60;99.90
5200;DHT22;2619;47.868;11.892;2023-07-31T10:42:55;25.50;99.90
5200;DHT22;2619;47.868;11.892;2023-07-31T10:48:19;25.50;99.90
5200;DHT22;2619;47.868;11.892;2023-07-31T10:50:48;25.70;98.90
5200;DHT22;2619;47.868;11.892;2023-07-31T10:53:31;26.10;99.90
5200;DHT22;2619;47.868;11.892;2023-07-31T10:56:01;26.20;98.40
5200;DHT22;2619;47.868;11.892;2023-07-31T10:58:27;26.00;98.00
5200;DHT22;2619;47.868;11.892;2023-07-31T11:00:56;26.10;99.90
5200;DHT22;2619;47.868;11.892;2023-07-31T11:03:26;26.40;98.50
5200;DHT22;2619;47.868;11.892;2023-07-31T11:10:49;27.30;98.00
5200;DHT22;2619;47.868;11.892;2023-07-31T11:13:15;27.40;97.30
5200;DHT22;2619;47.868;11.892;2023-07-31T11:15:41;27.40;98.20
5200;DHT22;2619;47.868;11.892;2023-07-31T11:18:06;27.30;97.00
5200;DHT22;2619;47.868;11.892;2023-07-31T11:20:35;27.00;96.40
5200;DHT22;2619;47.868;11.892;2023-07-31T11:23:02;27.20;98.20
5200;DHT22;2619;47.868;11.892;2023-07-31T11:25:31;27.00;97.70
5200;DHT22;2619;47.868;11.892;2023-07-31T11:28:05;27.30;99.80
5200;DHT22;2619;47.868;11.892;2023-07-31T11:30:32;27.40;97.40
5200;DHT22;2619;47.868;11.892;2023-07-31T11:32:57;27.60;96.90
5200;DHT22;2619;47.868;11.892;2023-07-31T11:35:23;27.70;96.10
5200;DHT22;2619;47.868;11.892;2023-07-31T11:37:49;27.80;98.30
5200;DHT22;2619;47.868;11.892;2023-07-31T11:40:15;27.80;97.30
5200;DHT22;2619;47.868;11.892;2023-07-31T11:42:40;27.50;97.90
5200;DHT22;2619;47.868;11.892;2023-07-31T11:45:08;27.00;95.30
5200;DHT22;2619;47.868;11.892;2023-07-31T11:47:35;27.00;95.70
5200;DHT22;2619;47.868;11.892;2023-07-31T11:50:06;27.30;97.00
5200;DHT22;2619;47.868;11.892;2023-07-31T11:52:41;27.50;94.30
5200;DHT22;2619;47.868;11.892;2023-07-31T11:55:08;27.90;96.30
5200;DHT22;2619;47.868;11.892;2023-07-31T11:57:39;28.20;94.20
5200;DHT22;2619;47.868;11.892;2023-07-31T12:00:08;28.40;95.40
5200;DHT22;2619;47.868;11.892;2023-07-31T12:02:36;28.40;95.90
5200;DHT22;2619;47.868;11.892;2023-07-31T12:05:02;28.00;92.50
5200;DHT22;2619;47.868;11.892;2023-07-31T12:07:54;28.00;93.90
5200;DHT22;2619;47.868;11.892;2023-07-31T12:10:31;27.70;94.00
5200;DHT22;2619;47.868;11.892;2023-07-31T12:13:04;27.30;94.50
5200;DHT22;2619;47.868;11.892;2023-07-31T12:18:00;27.40;95.90
5200;DHT22;2619;47.868;11.892;2023-07-31T12:20:25;27.40;95.60
5200;DHT22;2619;47.868;11.892;2023-07-31T12:22:51;27.40;97.60
5200;DHT22;2619;47.868;11.892;2023-07-31T12:25:17;27.40;95.20
5200;DHT22;2619;47.868;11.892;2023-07-31T12:27:45;27.20;92.40
5200;DHT22;2619;47.868;11.892;2023-07-31T12:30:33;27.00;96.70
5200;DHT22;2619;47.868;11.892;2023-07-31T12:33:06;27.10;96.00
5200;DHT22;2619;47.868;11.892;2023-07-31T12:35:37;27.20;94.30
5200;DHT22;2619;47.868;11.892;2023-07-31T12:38:03;27.30;94.30
5200;DHT22;2619;47.868;11.892;2023-07-31T12:40:29;27.40;96.00
5200;DHT22;2619;47.868;11.892;2023-07-31T12:42:54;27.50;94.30
5200;DHT22;2619;47.868;11.892;2023-07-31T12:45:20;27.60;95.00
5200;DHT22;2619;47.868;11.892;2023-07-31T12:47:46;27.50;93.50
5200;DHT22;2619;47.868;11.892;2023-07-31T12:50:12;27.50;94.20
5200;DHT22;2619;47.868;11.892;2023-07-31T12:52:38;27.30;96.40
5200;DHT22;2619;47.868;11.892;2023-07-31T12:55:03;27.30;97.00
5200;DHT22;2619;47.868;11.892;2023-07-31T12:57:30;27.50;97.30
5200;DHT22;2619;47.868;11.892;2023-07-31T12:59:56;27.80;97.30
5200;DHT22;2619;47.868;11.892;2023-07-31T13:02:21;28.10;94.40
5200;DHT22;2619;47.868;11.892;2023-07-31T13:04:48;28.30;92.60
5200;DHT22;2619;47.868;11.892;2023-07-31T13:07:14;28.50;94.10
5200;DHT22;2619;47.868;11.892;2023-07-31T13:09:40;28.80;95.20
5200;DHT22;2619;47.868;11.892;2023-07-31T13:12:05;29.00;94.40
5200;DHT22;2619;47.868;11.892;2023-07-31T13:14:31;29.30;93.70
5200;DHT22;2619;47.868;11.892;2023-07-31T13:16:57;29.30;93.10
5200;DHT22;2619;47.868;11.892;2023-07-31T13:19:22;29.10;89.60
5200;DHT22;2619;47.868;11.892;2023-07-31T13:21:48;29.10;92.20
5200;DHT22;2619;47.868;11.892;2023-07-31T13:24:13;29.20;91.90
5200;DHT22;2619;47.868;11.892;2023-07-31T13:26:39;29.20;90.60
5200;DHT22;2619;47.868;11.892;2023-07-31T13:29:05;29.30;93.20
5200;DHT22;2619;47.868;11.892;2023-07-31T13:31:30;29.10;91.30
5200;DHT22;2619;47.868;11.892;2023-07-31T13:33:56;29.20;88.80
5200;DHT22;2619;47.868;11.892;2023-07-31T13:36:21;29.30;92.40
5200;DHT22;2619;47.868;11.892;2023-07-31T13:38:47;29.30;91.20
5200;DHT22;2619;47.868;11.892;2023-07-31T13:41:12;29.10;92.70
5200;DHT22;2619;47.868;11.892;2023-07-31T13:43:38;29.00;92.10
5200;DHT22;2619;47.868;11.892;2023-07-31T13:46:04;28.80;92.00
5200;DHT22;2619;47.868;11.892;2023-07-31T13:48:34;28.80;92.50
5200;DHT22;2619;47.868;11.892;2023-07-31T13:51:00;28.70;91.40
5200;DHT22;2619;47.868;11.892;2023-07-31T13:53:25;28.40;91.90
5200;DHT22;2619;47.868;11.892;2023-07-31T13:55:51;28.10;91.40
5200;DHT22;2619;47.868;11.892;2023-07-31T13:58:17;28.10;95.00
5200;DHT22;2619;47.868;11.892;2023-07-31T14:00:43;28.00;93.40
5200;DHT22;2619;47.868;11.892;2023-07-31T14:03:08;27.90;91.50
5200;DHT22;2619;47.868;11.892;2023-07-31T14:05:35;27.80;93.50
5200;DHT22;2619;47.868;11.892;2023-07-31T14:08:00;27.80;94.70
5200;DHT22;2619;47.868;11.892;2023-07-31T14:10:26;27.90;93.70
5200;DHT22;2619;47.868;11.892;2023-07-31T14:12:51;28.00;91.90
5200;DHT22;2619;47.868;11.892;2023-07-31T14:15:17;28.30;91.80
5200;DHT22;2619;47.868;11.892;2023-07-31T14:17:42;28.70;91.90
5200;DHT22;2619;47.868;11.892;2023-07-31T14:20:09;28.80;92.00
5200;DHT22;2619;47.868;11.892;2023-07-31T14:22:34;29.00;91.30
5200;DHT22;2619;47.868;11.892;2023-07-31T14:25:00;29.00;86.50
5200;DHT22;2619;47.868;11.892;2023-07-31T14:27:26;28.50;85.00
5200;DHT22;2619;47.868;11.892;2023-07-31T14:29:51;28.30;91.70
5200;DHT22;2619;47.868;11.892;2023-07-31T14:32:17;28.40;90.00
5200;DHT22;2619;47.868;11.892;2023-07-31T14:34:42;28.60;91.00
5200;DHT22;2619;47.868;11.892;2023-07-31T14:37:08;28.90;88.80
5200;DHT22;2619;47.868;11.892;2023-07-31T14:39:34;28.90;86.00
5200;DHT22;2619;47.868;11.892;2023-07-31T14:41:59;28.90;90.90
5200;DHT22;2619;47.868;11.892;2023-07-31T14:44:25;28.90;91.50
5200;DHT22;2619;47.868;11.892;2023-07-31T14:46:50;29.10;91.00
5200;DHT22;2619;47.868;11.892;2023-07-31T14:49:16;29.00;90.70
5200;DHT22;2619;47.868;11.892;2023-07-31T14:51:41;28.80;90.30
5200;DHT22;2619;47.868;11.892;2023-07-31T14:54:07;28.60;90.10
5200;DHT22;2619;47.868;11.892;2023-07-31T14:56:33;28.50;84.20
5200;DHT22;2619;47.868;11.892;2023-07-31T14:58:58;28.10;86.40
5200;DHT22;2619;47.868;11.892;2023-07-31T15:01:24;27.90;90.60
5200;DHT22;2619;47.868;11.892;2023-07-31T15:03:49;27.70;89.50
5200;DHT22;2619;47.868;11.892;2023-07-31T15:06:15;27.40;88.60
5200;DHT22;2619;47.868;11.892;2023-07-31T15:08:41;27.20;87.70
5200;DHT22;2619;47.868;11.892;2023-07-31T15:11:07;26.80;87.20
5200;DHT22;2619;47.868;11.892;2023-07-31T15:13:33;26.70;84.40
5200;DHT22;2619;47.868;11.892;2023-07-31T15:15:59;26.50;87.00
5200;DHT22;2619;47.868;11.892;2023-07-31T15:18:24;26.40;89.80
5200;DHT22;2619;47.868;11.892;2023-07-31T15:20:51;26.50;90.90
5200;DHT22;2619;47.868;11.892;2023-07-31T15:23:16;26.40;90.20
5200;DHT22;2619;47.868;11.892;2023-07-31T15:25:42;26.50;91.80
5200;DHT22;2619;47.868;11.892;2023-07-31T15:28:08;26.30;90.60
5200;DHT22;2619;47.868;11.892;2023-07-31T15:30:35;25.90;90.40
5200;DHT22;2619;47.868;11.892;2023-07-31T15:33:02;25.90;90.70
5200;DHT22;2619;47.868;11.892;2023-07-31T15:35:27;25.90;92.10
5200;DHT22;2619;47.868;11.892;2023-07-31T15:37:53;25.90;91.60
5200;DHT22;2619;47.868;11.892;2023-07-31T15:40:18;26.20;90.70
5200;DHT22;2619;47.868;11.892;2023-07-31T15:42:44;26.50;91.10
5200;DHT22;2619;47.868;11.892;2023-07-31T15:45:10;26.60;91.20
5200;DHT22;2619;47.868;11.892;2023-07-31T15:47:36;26.90;90.80
5200;DHT22;2619;47.868;11.892;2023-07-31T15:50:02;27.10;92.90
5200;DHT22;2619;47.868;11.892;2023-07-31T15:52:27;27.30;91.70
5200;DHT22;2619;47.868;11.892;2023-07-31T15:54:53;27.30;91.80